createdAt,value
2022-12-08T00:01:14.432Z,6.95
2022-12-08T00:04:19.809Z,7.50
2022-12-08T00:07:37.599Z,7.13
2022-12-08T00:10:49.712Z,6.80
2022-12-08T00:13:55.661Z,7.90
2022-12-08T00:17:01.449Z,7.13
2022-12-08T00:20:07.533Z,7.68
2022-12-08T00:23:13.052Z,7.50
2022-12-08T00:26:21.023Z,6.53
2022-12-08T00:29:26.311Z,6.70
2022-12-08T00:32:31.628Z,7.22
2022-12-08T00:35:42.772Z,6.65
2022-12-08T00:38:48.995Z,7.28
2022-12-08T00:42:09.324Z,7.38
2022-12-08T00:45:15.120Z,6.25
2022-12-08T00:48:20.318Z,6.70
2022-12-08T00:51:25.358Z,6.20
2022-12-08T00:54:31.018Z,6.72
2022-12-08T00:57:38.995Z,6.22
2022-12-08T01:03:49.620Z,6.32
2022-12-08T01:06:54.991Z,6.00
2022-12-08T01:10:00.759Z,6.85
2022-12-08T01:13:11.895Z,5.93
2022-12-08T01:16:22.482Z,6.82
2022-12-08T01:19:28.338Z,6.57
2022-12-08T01:22:33.926Z,6.53
2022-12-08T01:25:39.473Z,6.53
2022-12-08T01:28:47.355Z,6.60
2022-12-08T01:31:53.152Z,6.20
2022-12-08T01:34:58.606Z,5.85
2022-12-08T01:38:03.869Z,6.30
2022-12-08T01:41:09.406Z,6.70
2022-12-08T01:44:29.540Z,6.47
2022-12-08T01:47:40.853Z,6.03
2022-12-08T01:50:46.191Z,7.15
2022-12-08T01:53:51.889Z,6.72
2022-12-08T01:57:01.826Z,7.15
2022-12-08T02:00:09.347Z,7.38
2022-12-08T02:03:19.248Z,6.97
2022-12-08T02:06:24.898Z,6.85
2022-12-08T02:09:30.213Z,7.40
2022-12-08T02:12:35.809Z,7.38
2022-12-08T02:16:05.872Z,6.85
2022-12-08T02:19:31.786Z,7.18
2022-12-08T02:22:43.149Z,7.18
2022-12-08T02:25:58.889Z,6.95
2022-12-08T02:29:19.072Z,7.75
2022-12-08T02:32:35.638Z,7.78
2022-12-08T02:35:48.377Z,8.02
2022-12-08T02:38:57.269Z,7.68
2022-12-08T02:42:06.326Z,8.00
2022-12-08T02:45:15.403Z,7.30
2022-12-08T02:48:21.117Z,9.18
2022-12-08T02:51:29.075Z,7.50
2022-12-08T02:57:42.804Z,7.50
2022-12-08T03:00:53.255Z,8.70
2022-12-08T03:04:03.582Z,7.75
2022-12-08T03:07:15.496Z,7.82
2022-12-08T03:10:25.137Z,8.10
2022-12-08T03:13:33.173Z,8.30
2022-12-08T03:16:40.673Z,7.75
2022-12-08T03:19:47.178Z,8.50
2022-12-08T03:22:56.742Z,7.68
2022-12-08T03:26:07.191Z,8.07
2022-12-08T03:29:12.941Z,8.48
2022-12-08T03:32:23.543Z,8.32
2022-12-08T03:35:30.056Z,8.43
2022-12-08T03:38:43.714Z,8.40
2022-12-08T03:41:49.467Z,8.63
2022-12-08T03:44:54.446Z,9.38
2022-12-08T03:48:00.116Z,8.98
2022-12-08T03:51:05.511Z,7.63
2022-12-08T03:54:13.693Z,8.38
2022-12-08T04:00:24.175Z,7.68
2022-12-08T04:03:29.713Z,8.15
2022-12-08T04:06:35.151Z,8.18
2022-12-08T04:09:43.050Z,7.78
2022-12-08T04:12:48.641Z,8.30
2022-12-08T04:15:54.085Z,7.85
2022-12-08T04:18:59.628Z,7.95
2022-12-08T04:22:04.842Z,7.82
2022-12-08T04:25:13.723Z,8.55
2022-12-08T04:28:19.128Z,8.73
2022-12-08T04:31:24.423Z,8.60
2022-12-08T04:34:30.220Z,7.72
2022-12-08T04:37:35.256Z,8.00
2022-12-08T04:40:43.581Z,8.80
2022-12-08T04:43:49.435Z,7.60
2022-12-08T04:46:54.761Z,7.40
2022-12-08T04:50:00.888Z,8.15
2022-12-08T04:53:06.119Z,8.23
2022-12-08T04:56:17.652Z,7.57
2022-12-08T04:59:23.184Z,8.73
2022-12-08T05:02:28.584Z,8.63
2022-12-08T05:05:33.981Z,7.68
2022-12-08T05:08:39.921Z,8.00
2022-12-08T05:11:49.204Z,7.65
2022-12-08T05:14:54.975Z,7.60
2022-12-08T05:18:00.479Z,7.75
2022-12-08T05:21:06.328Z,8.40
2022-12-08T05:24:12.230Z,6.88
2022-12-08T05:27:20.667Z,8.00
2022-12-08T05:30:25.971Z,7.97
2022-12-08T05:33:31.521Z,7.47
2022-12-08T05:36:36.681Z,7.63
2022-12-08T05:39:42.909Z,7.07
2022-12-08T05:42:50.953Z,7.07
2022-12-08T05:45:56.664Z,7.55
2022-12-08T05:49:02.719Z,7.15
2022-12-08T05:52:08.535Z,7.35
2022-12-08T05:55:14.027Z,7.20
2022-12-08T05:58:23.234Z,7.07
2022-12-08T06:01:30.252Z,7.28
2022-12-08T06:04:35.923Z,7.47
2022-12-08T06:07:41.486Z,7.53
2022-12-08T06:10:48.147Z,6.72
2022-12-08T06:13:56.961Z,6.95
2022-12-08T06:17:02.492Z,7.28
2022-12-08T06:20:08.844Z,6.78
2022-12-08T06:23:14.188Z,7.50
2022-12-08T06:26:20.431Z,7.10
2022-12-08T06:29:28.469Z,8.05
2022-12-08T06:35:38.808Z,6.50
2022-12-08T06:38:44.402Z,6.13
2022-12-08T06:42:02.343Z,6.65
2022-12-08T06:45:11.356Z,7.25
2022-12-08T06:48:16.985Z,6.18
2022-12-08T06:51:23.830Z,5.78
2022-12-08T06:54:29.586Z,6.82
2022-12-08T06:57:34.743Z,6.88
2022-12-08T07:00:42.838Z,5.80
2022-12-08T07:03:48.419Z,6.85
2022-12-08T07:06:54.186Z,6.45
2022-12-08T07:09:59.746Z,6.38
2022-12-08T07:13:05.377Z,6.40
2022-12-08T07:16:13.615Z,5.85
2022-12-08T07:19:19.233Z,5.72
2022-12-08T07:22:24.683Z,6.25
2022-12-08T07:25:30.013Z,6.50
2022-12-08T07:28:35.881Z,6.30
2022-12-08T07:31:43.664Z,5.88
2022-12-08T07:34:49.333Z,5.32
2022-12-08T07:37:54.480Z,6.00
2022-12-08T07:40:59.915Z,5.72
2022-12-08T07:44:05.443Z,5.38
2022-12-08T07:47:13.381Z,6.80
2022-12-08T07:50:18.676Z,7.05
2022-12-08T07:53:24.019Z,5.60
2022-12-08T07:56:29.202Z,5.82
2022-12-08T07:59:34.935Z,5.53
2022-12-08T08:02:43.219Z,5.72
2022-12-08T08:05:50.348Z,5.32
2022-12-08T08:08:56.148Z,5.68
2022-12-08T08:12:29.781Z,6.35
2022-12-08T08:15:27.140Z,6.13
2022-12-08T08:18:35.042Z,6.30
2022-12-08T08:21:47.688Z,5.50
2022-12-08T08:24:53.235Z,5.60
2022-12-08T08:27:58.381Z,5.05
2022-12-08T08:31:04.213Z,5.45
2022-12-08T08:34:12.645Z,6.50
2022-12-08T08:40:23.149Z,5.93
2022-12-08T08:43:38.519Z,5.78
2022-12-08T08:46:44.738Z,5.93
2022-12-08T08:49:52.674Z,5.93
2022-12-08T08:52:58.421Z,6.28
2022-12-08T08:56:05.335Z,6.13
2022-12-08T08:59:10.900Z,6.95
2022-12-08T09:02:19.455Z,5.85
2022-12-08T09:05:27.372Z,6.70
2022-12-08T09:08:32.573Z,7.22
2022-12-08T09:11:38.076Z,6.55
2022-12-08T09:14:43.711Z,6.78
2022-12-08T09:17:49.844Z,7.03
2022-12-08T09:20:58.133Z,6.78
2022-12-08T09:24:04.025Z,6.72
2022-12-08T09:27:09.070Z,5.93
2022-12-08T09:30:15.188Z,5.88
2022-12-08T09:33:20.717Z,6.05
2022-12-08T09:36:28.987Z,6.68
2022-12-08T09:39:34.321Z,6.80
2022-12-08T09:42:45.241Z,6.30
2022-12-08T09:45:51.987Z,6.70
2022-12-08T09:48:58.654Z,6.50
2022-12-08T09:52:06.999Z,6.72
2022-12-08T09:55:15.825Z,6.35
2022-12-08T09:58:23.929Z,6.60
2022-12-08T10:01:30.999Z,6.47
2022-12-08T10:04:37.934Z,7.88
2022-12-08T10:07:48.739Z,6.45
2022-12-08T10:10:58.522Z,6.85
2022-12-08T10:14:09.319Z,6.45
2022-12-08T10:17:18.833Z,5.97
2022-12-08T10:20:25.987Z,6.43
2022-12-08T10:23:36.715Z,6.45
2022-12-08T10:26:42.775Z,7.32
2022-12-08T10:29:48.182Z,6.22
2022-12-08T10:32:55.161Z,6.95
2022-12-08T10:36:03.240Z,6.53
2022-12-08T10:42:23.131Z,6.05
2022-12-08T10:45:29.492Z,6.13
2022-12-08T10:48:34.879Z,6.35
2022-12-08T10:51:41.566Z,7.28
2022-12-08T10:54:47.129Z,6.85
2022-12-08T10:57:55.410Z,6.72
2022-12-08T11:01:02.646Z,6.03
2022-12-08T11:04:09.652Z,7.00
2022-12-08T11:07:15.460Z,6.43
2022-12-08T11:10:22.640Z,7.15
2022-12-08T11:13:31.023Z,7.18
2022-12-08T11:16:36.619Z,7.28
2022-12-08T11:19:42.655Z,8.75
2022-12-08T11:22:49.040Z,6.45
2022-12-08T11:25:54.868Z,7.22
2022-12-08T11:29:02.921Z,6.75
2022-12-08T11:32:11.018Z,7.20
2022-12-08T11:38:24.471Z,6.68
2022-12-08T11:41:32.110Z,6.45
2022-12-08T11:44:42.166Z,6.90
2022-12-08T11:47:55.651Z,7.82
2022-12-08T11:51:04.107Z,6.80
2022-12-08T11:54:14.694Z,6.80
2022-12-08T11:57:21.093Z,7.00
2022-12-08T12:00:29.230Z,6.70
2022-12-08T12:03:37.933Z,7.13
2022-12-08T12:07:04.318Z,6.85
2022-12-08T12:10:21.254Z,7.90
2022-12-08T12:13:35.741Z,7.20
2022-12-08T12:17:07.856Z,7.28
2022-12-08T12:20:18.957Z,6.47
2022-12-08T12:23:26.722Z,8.25
2022-12-08T12:26:35.667Z,7.38
2022-12-08T12:29:41.840Z,6.95
2022-12-08T12:32:49.122Z,6.80
2022-12-08T12:35:59.083Z,6.35
2022-12-08T12:39:06.510Z,6.82
2022-12-08T12:42:12.184Z,7.30
2022-12-08T12:45:29.537Z,7.10
2022-12-08T12:48:34.894Z,7.37
2022-12-08T12:51:49.070Z,7.32
2022-12-08T12:55:08.956Z,7.15
2022-12-08T12:58:23.030Z,7.53
2022-12-08T13:01:55.667Z,7.53
2022-12-08T13:05:02.770Z,8.27
2022-12-08T13:08:19.517Z,7.25
2022-12-08T13:11:25.892Z,7.47
2022-12-08T13:14:35.561Z,7.25
2022-12-08T13:17:41.002Z,7.10
2022-12-08T13:20:51.271Z,7.20
2022-12-08T13:24:18.195Z,7.22
2022-12-08T13:27:37.062Z,8.32
2022-12-08T13:30:45.759Z,9.10
2022-12-08T13:33:51.510Z,7.72
2022-12-08T13:37:03.165Z,7.60
2022-12-08T13:40:12.407Z,8.65
2022-12-08T13:43:21.531Z,7.95
2022-12-08T13:47:24.684Z,8.90
2022-12-08T13:57:10.190Z,8.85
2022-12-08T14:00:18.590Z,8.23
2022-12-08T14:03:24.355Z,9.60
2022-12-08T14:06:32.509Z,9.85
2022-12-08T14:09:38.931Z,8.90
2022-12-08T14:12:49.017Z,9.07
2022-12-08T14:15:54.334Z,10.10
2022-12-08T14:19:07.274Z,8.43
2022-12-08T14:22:14.186Z,10.00
2022-12-08T14:25:20.407Z,8.23
2022-12-08T14:28:28.590Z,8.95
2022-12-08T14:34:41.462Z,9.50
2022-12-08T14:37:48.006Z,10.35
2022-12-08T14:41:03.149Z,9.60
2022-12-08T14:44:24.150Z,10.07
2022-12-08T14:47:32.722Z,9.20
2022-12-08T14:50:43.065Z,10.10
2022-12-08T14:53:50.370Z,9.45
2022-12-08T14:56:56.880Z,9.73
2022-12-08T15:00:09.856Z,9.75
2022-12-08T15:03:15.908Z,10.02
2022-12-08T15:06:23.738Z,10.23
2022-12-08T15:09:33.420Z,8.30
2022-12-08T15:12:38.709Z,10.43
2022-12-08T15:15:53.990Z,9.30
2022-12-08T15:19:13.275Z,9.40
2022-12-08T15:22:24.481Z,10.48
2022-12-08T15:25:29.906Z,9.95
2022-12-08T15:28:35.519Z,9.90
2022-12-08T15:31:43.559Z,10.82
2022-12-08T15:34:49.283Z,10.52
2022-12-08T15:37:54.387Z,12.02
2022-12-08T15:41:00.483Z,9.95
2022-12-08T15:44:05.939Z,10.65
2022-12-08T15:47:16.754Z,11.02
2022-12-08T15:50:23.723Z,11.02
2022-12-08T15:53:29.389Z,10.55
2022-12-08T15:56:40.983Z,10.43
2022-12-08T15:59:56.581Z,10.48
2022-12-08T16:03:27.638Z,10.50
2022-12-08T16:09:55.591Z,11.07
2022-12-08T16:13:55.739Z,11.52
2022-12-08T16:16:38.932Z,10.80
2022-12-08T16:19:47.587Z,10.68
2022-12-08T16:22:59.552Z,12.13
2022-12-08T16:26:21.933Z,11.15
2022-12-08T16:29:34.994Z,11.07
2022-12-08T16:32:40.266Z,12.27
2022-12-08T16:35:48.064Z,10.73
2022-12-08T16:38:53.494Z,11.15
2022-12-08T16:42:11.000Z,10.63
2022-12-08T16:45:17.309Z,13.05
2022-12-08T16:48:22.804Z,11.48
2022-12-08T16:51:31.011Z,11.38
2022-12-08T16:54:36.500Z,12.98
2022-12-08T16:57:42.268Z,12.52
2022-12-08T17:00:48.619Z,11.45
2022-12-08T17:04:29.133Z,12.20
2022-12-08T17:07:22.178Z,11.25
2022-12-08T17:10:28.833Z,12.30
2022-12-08T17:13:34.436Z,12.30
2022-12-08T17:16:40.015Z,12.30
2022-12-08T17:19:45.567Z,13.68
2022-12-08T17:22:53.921Z,13.20
2022-12-08T17:26:02.145Z,11.40
2022-12-08T17:32:13.060Z,11.48
2022-12-08T17:35:18.893Z,11.13
2022-12-08T17:38:26.764Z,10.88
2022-12-08T17:41:32.785Z,11.88
2022-12-08T17:44:38.475Z,11.50
2022-12-08T17:47:44.124Z,12.30
2022-12-08T17:50:49.682Z,12.82
2022-12-08T17:53:58.042Z,12.48
2022-12-08T18:00:09.656Z,11.98
2022-12-08T18:03:18.151Z,11.48
2022-12-08T18:06:26.950Z,11.82
2022-12-08T18:09:38.673Z,11.98
2022-12-08T18:12:44.277Z,12.35
2022-12-08T18:15:49.523Z,12.20
2022-12-08T18:18:54.798Z,12.30
2022-12-08T18:22:00.083Z,11.52
2022-12-08T18:25:09.592Z,12.38
2022-12-08T18:28:14.836Z,11.82
2022-12-08T18:31:21.767Z,12.48
2022-12-08T18:34:27.050Z,12.20
2022-12-08T18:37:32.543Z,12.13
2022-12-08T18:40:40.196Z,11.73
2022-12-08T18:43:45.856Z,11.38
2022-12-08T18:46:50.986Z,12.98
2022-12-08T18:49:56.705Z,12.02
2022-12-08T18:53:02.184Z,11.20
2022-12-08T18:56:10.715Z,11.50
2022-12-08T18:59:16.315Z,11.43
2022-12-08T19:02:22.406Z,10.98
2022-12-08T19:05:27.842Z,11.50
2022-12-08T19:08:33.158Z,11.32
2022-12-08T19:11:41.925Z,10.93
2022-12-08T19:14:47.288Z,11.30
2022-12-08T19:17:52.308Z,11.68
2022-12-08T19:20:57.437Z,11.05
2022-12-08T19:24:02.715Z,10.50
2022-12-08T19:27:11.034Z,11.13
2022-12-08T19:33:21.532Z,10.27
2022-12-08T19:36:27.889Z,10.50
2022-12-08T19:39:45.740Z,10.20
2022-12-08T19:43:05.801Z,11.70
2022-12-08T19:46:11.913Z,9.88
2022-12-08T19:49:17.202Z,11.27
2022-12-08T19:52:23.112Z,10.50
2022-12-08T19:55:28.807Z,10.30
2022-12-08T19:58:37.306Z,11.10
2022-12-08T20:01:42.662Z,11.75
2022-12-08T20:04:48.395Z,11.15
2022-12-08T20:07:55.948Z,10.95
2022-12-08T20:11:01.375Z,10.83
2022-12-08T20:14:09.553Z,12.18
2022-12-08T20:17:15.149Z,12.02
2022-12-08T20:20:20.507Z,12.02
2022-12-08T20:23:25.975Z,12.02
2022-12-08T20:26:31.629Z,11.63
2022-12-08T20:29:39.653Z,11.95
2022-12-08T20:32:45.156Z,11.43
2022-12-08T20:35:55.987Z,11.80
2022-12-08T20:39:04.457Z,10.88
2022-12-08T20:42:10.007Z,11.63
2022-12-08T20:45:18.021Z,11.85
2022-12-08T20:48:23.752Z,11.63
2022-12-08T20:51:32.043Z,11.30
2022-12-08T20:54:37.640Z,11.85
2022-12-08T20:57:43.008Z,11.75
2022-12-08T21:00:51.489Z,11.40
2022-12-08T21:03:57.553Z,11.82
2022-12-08T21:07:03.084Z,12.82
2022-12-08T21:10:09.924Z,11.02
2022-12-08T21:13:16.185Z,12.02
2022-12-08T21:16:24.428Z,11.10
2022-12-08T21:22:35.025Z,10.88
2022-12-08T21:25:42.995Z,12.32
2022-12-08T21:28:48.237Z,12.52
2022-12-08T21:31:56.593Z,12.63
2022-12-08T21:35:02.277Z,12.35
2022-12-08T21:38:09.327Z,11.68
2022-12-08T21:41:16.161Z,11.98
2022-12-08T21:44:21.918Z,12.05
2022-12-08T21:47:29.901Z,12.15
2022-12-08T21:50:35.541Z,13.98
2022-12-08T21:53:41.044Z,13.32
2022-12-08T21:56:47.269Z,12.90
2022-12-08T21:59:52.798Z,15.02
2022-12-08T22:03:01.166Z,13.57
2022-12-08T22:06:09.477Z,12.68
2022-12-08T22:12:21.523Z,12.60
2022-12-08T22:15:30.065Z,13.40
2022-12-08T22:18:38.707Z,14.13
2022-12-08T22:21:44.386Z,14.48
2022-12-08T22:24:49.798Z,14.73
2022-12-08T22:27:55.571Z,14.90
2022-12-08T22:31:01.073Z,14.57
2022-12-08T22:34:09.276Z,13.80
2022-12-08T22:37:14.390Z,13.98
2022-12-08T22:40:22.120Z,14.68
2022-12-08T22:43:27.530Z,14.60
2022-12-08T22:46:32.946Z,14.32
2022-12-08T22:49:41.235Z,13.68
2022-12-08T22:52:49.930Z,15.18
2022-12-08T22:55:55.632Z,16.15
2022-12-08T22:59:01.472Z,14.63
2022-12-08T23:02:07.471Z,15.10
2022-12-08T23:05:16.071Z,14.00
2022-12-08T23:08:21.788Z,14.48
2022-12-08T23:11:31.330Z,14.77
2022-12-08T23:14:36.756Z,14.98
2022-12-08T23:17:42.176Z,13.00
2022-12-08T23:20:50.809Z,15.00
2022-12-08T23:23:55.889Z,14.00
2022-12-08T23:27:01.669Z,14.18
2022-12-08T23:30:08.227Z,15.02
2022-12-08T23:33:14.256Z,14.50
2022-12-08T23:36:23.098Z,15.23
2022-12-08T23:39:29.619Z,14.48
2022-12-08T23:42:35.673Z,13.35
2022-12-08T23:45:41.348Z,16.05
2022-12-08T23:48:46.533Z,14.60
2022-12-08T23:51:54.563Z,16.85
2022-12-08T23:55:00.084Z,14.52
2022-12-08T23:58:05.631Z,14.68
